North San Ysidro, New Mexico
Current Conditions -  °F | °C
As of 3:53 PM on Saturday 20 Dec 2014 (Local Time) from KLVS Reporting Station
Clear Clear  
Wind Chill: 40°   Ceiling: Unl
Heat Index: 46°   Visibility: 10mi
Dew Point:   Wind: 13mph
Humidity: 21%   Direction: 190°S
Pressure: 29.99"   Gusts: NA
Location:  35.4225°N, 105.56°W
Report Text: KLVS 202253Z AUTO 19011KT 10SM CLR 08/M13 A2999 RMK AO2 SLP134 T00781133
Loading
Personal Weather Stations






























Interactive Weather Map New forecast layout! Learn more

10-Day Weather Forecast

Advertisements
Track Severe Weather on mobile